Svitzer Stanlow — MLNF7 — position and weather

sailwx.info

Track history (hours):
 
Tides and Currents Weather Stations Pressure Air Temp Water Temp Dewpoint Dewpoint Depression Visibility Wind Speed Wind Dir Waves Ship Positions

Svitzer Stanlow

Last reported at 2014-Oct-26 08:29 UTC. Time now 2014-Oct-26 08:38 UTC.
Position N 53°25' W 003°00'.

Length 39 m.

Type: Tug. MMSI: 235010620.

Date/timePositionNaut miles runAvg speedWind from/ knotsBaromVisibWave heightAir tempDewpointWater temp
2014-Oct-26 08:29N 53°25' W 003°00'0 0.0
2014-Oct-26 07:29N 53°25' W 003°00'0 0.0
2014-Oct-26 06:29N 53°25' W 003°00'0 0.0
2014-Oct-26 05:29N 53°25' W 003°00'0 0.0
2014-Oct-26 04:29N 53°25' W 003°00'0 0.0
2014-Oct-26 03:29N 53°25' W 003°00'0 0.0
2014-Oct-26 02:29N 53°25' W 003°00'0 0.0
2014-Oct-26 01:29N 53°25' W 003°00'0 0.0
2014-Oct-26 00:29N 53°25' W 003°00'0 0.0
2014-Oct-25 23:29N 53°25' W 003°00'0 0.0
2014-Oct-25 22:29N 53°25' W 003°00'0 0.0
2014-Oct-25 21:29N 53°25' W 003°00'0 0.0
2014-Oct-25 20:17N 53°25' W 003°00'0 0.0
2014-Oct-25 19:23N 53°25' W 003°00'0 0.0
2014-Oct-25 18:29N 53°25' W 003°00'0 0.0
2014-Oct-25 17:29N 53°25' W 003°00'0 0.0
2014-Oct-25 16:29N 53°25' W 003°00'0 0.0
2014-Oct-25 15:29N 53°25' W 003°00'0 0.0
2014-Oct-25 14:29N 53°25' W 003°00'0 0.0
2014-Oct-25 13:29N 53°25' W 003°00'0 0.0
2014-Oct-25 12:29N 53°25' W 003°00'0 0.0
2014-Oct-25 11:29N 53°25' W 003°00'0 0.0
2014-Oct-25 10:17N 53°25' W 003°00'0 0.0
2014-Oct-25 09:29N 53°25' W 003°00'0 0.0
2014-Oct-25 08:29N 53°25' W 003°00'0 0.0
2014-Oct-25 07:23N 53°25' W 003°00'0 0.0
2014-Oct-25 06:23N 53°25' W 003°00'0 0.0
2014-Oct-25 05:29N 53°25' W 003°00'0 0.0
2014-Oct-25 04:29N 53°25' W 003°00'1 0.5
2014-Oct-25 03:28N 53°26' W 003°00'1 1.5
2014-Oct-25 02:29N 53°27' W 003°01'0 0.1
2014-Oct-25 01:29N 53°27' W 003°01'0 0.2
2014-Oct-25 00:32N 53°27' W 003°01'0 0.2
2014-Oct-24 23:33N 53°27' W 003°01'0 0.3
2014-Oct-24 22:26N 53°27' W 003°01'1 1.2
2014-Oct-24 21:33N 53°27' W 003°03'2 1.5
2014-Oct-24 20:27N 53°26' W 003°01'0 0.2
2014-Oct-24 19:33N 53°27' W 003°01'1 1.1
2014-Oct-24 18:30N 53°25' W 003°00'0 0.0
2014-Oct-24 17:23N 53°25' W 003°00'0 0.0
2014-Oct-24 16:29N 53°25' W 003°00'0 0.0
2014-Oct-24 15:29N 53°25' W 003°00'2 1.9
2014-Oct-24 14:33N 53°27' W 003°01'0 0.2
2014-Oct-24 13:11N 53°27' W 003°01'1 1.0
2014-Oct-24 12:28N 53°27' W 003°02'1 0.8
2014-Oct-24 11:31N 53°27' W 003°01'2 2.0
2014-Oct-24 10:33N 53°25' W 003°01'2 1.7
2014-Oct-24 09:31N 53°23' W 003°00'1 0.7
2014-Oct-24 08:34N 53°23' W 002°60'3 3.4
2014-Oct-24 07:33N 53°26' W 003°01'1 0.5
2014-Oct-24 06:30N 53°27' W 003°01'0 0.0
2014-Oct-24 05:30N 53°27' W 003°01'0 0.0
2014-Oct-24 04:30N 53°27' W 003°01'0 0.0
2014-Oct-24 03:30N 53°27' W 003°01'0 0.0
2014-Oct-24 02:30N 53°27' W 003°01'0 0.0
2014-Oct-24 01:30N 53°27' W 003°01'0 0.0
2014-Oct-24 00:30N 53°27' W 003°01'0 0.2
2014-Oct-23 23:33N 53°27' W 003°01'1 0.5
2014-Oct-23 22:30N 53°27' W 003°01'0 0.4
2014-Oct-23 21:30N 53°27' W 003°01'2 1.6
2014-Oct-23 20:32N 53°28' W 003°03'1 1.5
2014-Oct-23 19:32N 53°27' W 003°01'2 1.5
2014-Oct-23 18:23N 53°25' W 003°00'0 0.0
2014-Oct-23 17:29N 53°25' W 003°00'0 0.0
2014-Oct-23 16:23N 53°25' W 003°00'0 0.0
2014-Oct-23 15:29N 53°25' W 003°00'0 0.0
2014-Oct-23 14:29N 53°25' W 003°00'0 0.0
2014-Oct-23 13:29N 53°25' W 003°00'0 0.0
2014-Oct-23 12:29N 53°25' W 003°00'0 0.0
2014-Oct-23 11:29N 53°25' W 003°00'0 0.0
2014-Oct-23 10:23N 53°25' W 003°00'0 0.0
2014-Oct-23 09:23N 53°25' W 003°00'0 0.0
2014-Oct-23 08:23N 53°25' W 003°00'0 0.0
2014-Oct-23 07:29N 53°25' W 003°00'0 0.0
2014-Oct-23 06:17N 53°25' W 003°00'0 0.0
2014-Oct-23 05:23N 53°25' W 003°00'0 0.0
2014-Oct-23 04:29N 53°25' W 003°00'0 0.0
2014-Oct-23 03:29N 53°25' W 003°00'0 0.0
2014-Oct-23 02:29N 53°25' W 003°00'0 0.0
2014-Oct-23 01:23N 53°25' W 003°00'0 0.0
2014-Oct-23 00:23N 53°25' W 003°00'0 0.0
2014-Oct-22 23:29N 53°25' W 003°00'0 0.0
2014-Oct-22 22:29N 53°25' W 003°00'0 0.0
2014-Oct-22 21:29N 53°25' W 003°00'0 0.0
2014-Oct-22 20:23N 53°25' W 003°00'0 0.0
2014-Oct-22 19:29N 53°25' W 003°00'0 0.0
2014-Oct-22 18:29N 53°25' W 003°00'0 0.0
2014-Oct-22 17:29N 53°25' W 003°00'0 0.0
2014-Oct-22 16:23N 53°25' W 003°00'0 0.0
2014-Oct-22 15:29N 53°25' W 003°00'0 0.0
2014-Oct-22 14:29N 53°25' W 003°00'0 0.0
2014-Oct-22 13:28N 53°25' W 003°00'0 0.0
2014-Oct-22 12:28N 53°25' W 003°00'0 0.0
2014-Oct-22 11:28N 53°25' W 003°00'0 0.0
2014-Oct-22 10:28N 53°25' W 003°00'1 1.0
2014-Oct-22 09:30N 53°26' W 003°01'4 3.2
2014-Oct-22 08:18N 53°23' W 002°60'0 0.0
2014-Oct-22 07:24N 53°23' W 002°60'0 0.0
2014-Oct-22 06:30N 53°23' W 002°60'0 0.0
2014-Oct-22 05:05N 53°23' W 002°60'0 0.0
2014-Oct-22 04:29N 53°23' W 002°60'0 0.0
2014-Oct-22 03:23N 53°23' W 002°60'0 0.0
2014-Oct-22 02:29N 53°23' W 002°60'0 0.0
2014-Oct-22 01:11N 53°23' W 002°60'0 0.0
2014-Oct-22 00:17N 53°23' W 002°60'0 0.0
2014-Oct-21 23:29N 53°23' W 002°60'0 0.0
2014-Oct-21 22:23N 53°23' W 002°60'0 0.0
2014-Oct-21 21:29N 53°23' W 002°60'0 0.0
2014-Oct-21 18:33N 53°23' W 002°60'0 0.0
2014-Oct-21 17:27N 53°23' W 002°60'0 0.0
2014-Oct-21 15:21N 53°23' W 002°60'0 0.0
2014-Oct-21 14:33N 53°23' W 002°60'0 0.0
2014-Oct-21 12:15N 53°23' W 002°60'0 0.0
2014-Oct-21 11:21N 53°23' W 002°60'0 0.0
2014-Oct-21 10:33N 53°23' W 002°60'0 0.0
2014-Oct-21 09:15N 53°23' W 002°60'0 0.0
2014-Oct-21 08:33N 53°23' W 002°60'0 0.0
2014-Oct-21 07:15N 53°23' W 002°60'0 0.0
2014-Oct-21 05:33N 53°23' W 002°60'0 0.1
2014-Oct-21 04:13N 53°23' W 002°60'0 0.0
2014-Oct-21 03:31N 53°23' W 002°60'0 0.0
2014-Oct-21 02:31N 53°23' W 002°60'0 0.0
2014-Oct-21 01:31N 53°23' W 002°60'0 0.0
2014-Oct-21 00:25N 53°23' W 002°60'0 0.0
2014-Oct-20 23:31N 53°23' W 002°60'0 0.0
2014-Oct-20 22:13N 53°23' W 002°60'0 0.0
2014-Oct-20 21:19N 53°23' W 002°60'0 0.0
2014-Oct-20 20:07N 53°23' W 002°60'0 0.0
2014-Oct-20 19:18N 53°23' W 002°60'0 0.0
2014-Oct-20 17:30N 53°23' W 002°60'0 0.0
2014-Oct-20 16:18N 53°23' W 002°60'0 0.0
2014-Oct-20 15:30N 53°23' W 002°60'0 0.0
2014-Oct-20 14:24N 53°23' W 002°60'0 0.0
2014-Oct-20 13:24N 53°23' W 002°60'0 0.0
2014-Oct-20 12:30N 53°23' W 002°60'0 0.0
2014-Oct-20 11:18N 53°23' W 002°60'0 0.0
2014-Oct-20 10:18N 53°23' W 002°60'0 0.0
2014-Oct-20 09:30N 53°23' W 002°60'0 0.0
2014-Oct-20 08:30N 53°23' W 002°60'0 0.0
2014-Oct-20 03:12N 53°23' W 002°60'0 0.0
2014-Oct-20 02:24N 53°23' W 002°60'0 0.0
2014-Oct-19 21:24N 53°23' W 002°60'0 0.3
2014-Oct-19 20:33N 53°23' W 003°00'5 4.7
2014-Oct-19 19:33N 53°27' W 003°02'9 7.9
2014-Oct-19 18:28N 53°31' W 003°16'4 3.9
2014-Oct-19 17:33N 53°32' W 003°10'7 6.4
2014-Oct-19 16:28N 53°27' W 003°01'2 1.7
2014-Oct-19 15:28N 53°25' W 003°00'0 0.0
2014-Oct-19 14:28N 53°25' W 003°00'0 0.0
2014-Oct-19 13:28N 53°25' W 003°00'0 0.0
2014-Oct-19 12:28N 53°25' W 003°00'0 0.0
2014-Oct-19 11:28N 53°25' W 003°00'0 0.0
2014-Oct-19 10:28N 53°25' W 003°00'0 0.0
2014-Oct-19 09:28N 53°25' W 003°00'0 0.0
2014-Oct-19 08:28N 53°25' W 003°00'0 0.0
2014-Oct-19 07:28N 53°25' W 003°00'2 2.1
2014-Oct-19 06:29N 53°27' W 003°01'1 0.5
2014-Oct-19 05:30N 53°27' W 003°01'0 0.2
2014-Oct-19 04:30N 53°27' W 003°01'2 1.5
2014-Oct-19 03:26N 53°25' W 003°00'0 0.0
2014-Oct-19 02:32N 53°25' W 003°00'0 0.0
2014-Oct-19 01:32N 53°25' W 003°00'0 0.0
2014-Oct-19 00:32N 53°25' W 003°00'0 0.0
2014-Oct-18 23:32N 53°25' W 003°00'0 0.0
2014-Oct-18 22:20N 53°25' W 003°00'0 0.0
2014-Oct-18 21:32N 53°25' W 003°00'0 0.0
2014-Oct-18 20:32N 53°25' W 003°00'0 0.0
2014-Oct-18 19:32N 53°25' W 003°00'0 0.0
2014-Oct-18 18:32N 53°25' W 003°00'0 0.0
2014-Oct-18 17:32N 53°25' W 003°00'0 0.3
2014-Oct-18 16:33N 53°26' W 003°00'2 1.8
2014-Oct-18 15:33N 53°24' W 003°00'1 1.2
2014-Oct-18 14:31N 53°23' W 002°60'0 0.0
2014-Oct-18 13:31N 53°23' W 002°60'0 0.0
2014-Oct-18 12:31N 53°23' W 002°60'0 0.0
2014-Oct-18 11:31N 53°23' W 002°60'0 0.0
2014-Oct-18 10:31N 53°23' W 002°60'0 0.0
2014-Oct-18 09:31N 53°23' W 002°60'0 0.0
2014-Oct-18 08:31N 53°23' W 002°60'0 0.0
2014-Oct-18 07:31N 53°23' W 002°60'0 0.0
2014-Oct-18 06:25N 53°23' W 002°60'0 0.0
2014-Oct-18 05:31N 53°23' W 002°60'0 0.0
2014-Oct-18 04:18N 53°23' W 002°60'0 0.0
2014-Oct-18 03:24N 53°23' W 002°60'0 0.0
2014-Oct-18 02:30N 53°23' W 002°60'0 0.0
2014-Oct-18 01:24N 53°23' W 002°60'0 0.0
2014-Oct-18 00:30N 53°23' W 002°60'0 0.0
2014-Oct-17 23:30N 53°23' W 002°60'0 0.0
2014-Oct-17 22:18N 53°23' W 002°60'0 0.0
2014-Oct-17 21:18N 53°23' W 002°60'0 0.0
2014-Oct-17 19:24N 53°23' W 002°60'0 0.0
2014-Oct-17 18:18N 53°23' W 002°60'0 0.0
2014-Oct-17 17:30N 53°23' W 002°60'0 0.0
2014-Oct-17 16:30N 53°23' W 002°60'0 0.0
2014-Oct-17 15:30N 53°23' W 002°60'0 0.0
2014-Oct-17 14:30N 53°23' W 002°60'0 0.0
2014-Oct-17 07:12N 53°23' W 002°60'0 0.0
2014-Oct-17 06:30N 53°23' W 002°60'0 0.4
2014-Oct-17 05:32N 53°23' W 003°00'6 5.8
2014-Oct-17 04:33N 53°28' W 003°04'9 8.3
2014-Oct-17 03:27N 53°31' W 003°18'7 7.8
2014-Oct-17 02:33N 53°31' W 003°07'9 9.0
2014-Oct-17 01:31N 53°23' W 003°00'0 0.0
2014-Oct-17 00:31N 53°23' W 003°00'0 0.0
2014-Oct-16 23:31N 53°23' W 003°00'0 0.0
2014-Oct-16 22:31N 53°23' W 003°00'0 0.0
2014-Oct-16 21:31N 53°23' W 003°00'0 0.0
2014-Oct-16 20:31N 53°23' W 003°00'0 0.0
2014-Oct-16 19:31N 53°23' W 003°00'0 0.0
2014-Oct-16 18:19N 53°23' W 003°00'0 0.0
2014-Oct-16 17:31N 53°23' W 003°00'0 0.0
2014-Oct-16 16:31N 53°23' W 003°00'0 0.0
2014-Oct-16 14:32N 53°23' W 003°00'0 0.0
2014-Oct-16 13:32N 53°23' W 003°00'0 0.0
2014-Oct-16 12:32N 53°23' W 003°00'0 0.0
2014-Oct-16 11:32N 53°23' W 003°00'0 0.0
2014-Oct-16 10:26N 53°23' W 003°00'0 0.0
2014-Oct-16 09:32N 53°23' W 003°00'  
Track history (hours):
 
Tides and Currents Weather Stations Pressure Air Temp Water Temp Dewpoint Dewpoint Depression Visibility Wind Speed Wind Dir Waves Ship Positions

Svitzer Stanlow

Last reported at 2014-Oct-26 08:29 UTC. Time now 2014-Oct-26 08:38 UTC.
Position N 53°25' W 003°00'.

Length 39 m.

Type: Tug. MMSI: 235010620.

Date/timePositionNaut miles runAvg speedWind from/ knotsBaromVisibWave heightAir tempDewpointWater temp
2014-Oct-26 08:29N 53°25' W 003°00'0 0.0
2014-Oct-26 07:29N 53°25' W 003°00'0 0.0
2014-Oct-26 06:29N 53°25' W 003°00'0 0.0
2014-Oct-26 05:29N 53°25' W 003°00'0 0.0
2014-Oct-26 04:29N 53°25' W 003°00'0 0.0
2014-Oct-26 03:29N 53°25' W 003°00'0 0.0
2014-Oct-26 02:29N 53°25' W 003°00'0 0.0
2014-Oct-26 01:29N 53°25' W 003°00'0 0.0
2014-Oct-26 00:29N 53°25' W 003°00'0 0.0
2014-Oct-25 23:29N 53°25' W 003°00'0 0.0
2014-Oct-25 22:29N 53°25' W 003°00'0 0.0
2014-Oct-25 21:29N 53°25' W 003°00'0 0.0
2014-Oct-25 20:17N 53°25' W 003°00'0 0.0
2014-Oct-25 19:23N 53°25' W 003°00'0 0.0
2014-Oct-25 18:29N 53°25' W 003°00'0 0.0
2014-Oct-25 17:29N 53°25' W 003°00'0 0.0
2014-Oct-25 16:29N 53°25' W 003°00'0 0.0
2014-Oct-25 15:29N 53°25' W 003°00'0 0.0
2014-Oct-25 14:29N 53°25' W 003°00'0 0.0
2014-Oct-25 13:29N 53°25' W 003°00'0 0.0
2014-Oct-25 12:29N 53°25' W 003°00'0 0.0
2014-Oct-25 11:29N 53°25' W 003°00'0 0.0
2014-Oct-25 10:17N 53°25' W 003°00'0 0.0
2014-Oct-25 09:29N 53°25' W 003°00'0 0.0
2014-Oct-25 08:29N 53°25' W 003°00'0 0.0
2014-Oct-25 07:23N 53°25' W 003°00'0 0.0
2014-Oct-25 06:23N 53°25' W 003°00'0 0.0
2014-Oct-25 05:29N 53°25' W 003°00'0 0.0
2014-Oct-25 04:29N 53°25' W 003°00'1 0.5
2014-Oct-25 03:28N 53°26' W 003°00'1 1.5
2014-Oct-25 02:29N 53°27' W 003°01'0 0.1
2014-Oct-25 01:29N 53°27' W 003°01'0 0.2
2014-Oct-25 00:32N 53°27' W 003°01'0 0.2
2014-Oct-24 23:33N 53°27' W 003°01'0 0.3
2014-Oct-24 22:26N 53°27' W 003°01'1 1.2
2014-Oct-24 21:33N 53°27' W 003°03'2 1.5
2014-Oct-24 20:27N 53°26' W 003°01'0 0.2
2014-Oct-24 19:33N 53°27' W 003°01'1 1.1
2014-Oct-24 18:30N 53°25' W 003°00'0 0.0
2014-Oct-24 17:23N 53°25' W 003°00'0 0.0
2014-Oct-24 16:29N 53°25' W 003°00'0 0.0
2014-Oct-24 15:29N 53°25' W 003°00'2 1.9
2014-Oct-24 14:33N 53°27' W 003°01'0 0.2
2014-Oct-24 13:11N 53°27' W 003°01'1 1.0
2014-Oct-24 12:28N 53°27' W 003°02'1 0.8
2014-Oct-24 11:31N 53°27' W 003°01'2 2.0
2014-Oct-24 10:33N 53°25' W 003°01'2 1.7
2014-Oct-24 09:31N 53°23' W 003°00'1 0.7
2014-Oct-24 08:34N 53°23' W 002°60'3 3.4
2014-Oct-24 07:33N 53°26' W 003°01'1 0.5
2014-Oct-24 06:30N 53°27' W 003°01'0 0.0
2014-Oct-24 05:30N 53°27' W 003°01'0 0.0
2014-Oct-24 04:30N 53°27' W 003°01'0 0.0
2014-Oct-24 03:30N 53°27' W 003°01'0 0.0
2014-Oct-24 02:30N 53°27' W 003°01'0 0.0
2014-Oct-24 01:30N 53°27' W 003°01'0 0.0
2014-Oct-24 00:30N 53°27' W 003°01'0 0.2
2014-Oct-23 23:33N 53°27' W 003°01'1 0.5
2014-Oct-23 22:30N 53°27' W 003°01'0 0.4
2014-Oct-23 21:30N 53°27' W 003°01'2 1.6
2014-Oct-23 20:32N 53°28' W 003°03'1 1.5
2014-Oct-23 19:32N 53°27' W 003°01'2 1.5
2014-Oct-23 18:23N 53°25' W 003°00'0 0.0
2014-Oct-23 17:29N 53°25' W 003°00'0 0.0
2014-Oct-23 16:23N 53°25' W 003°00'0 0.0
2014-Oct-23 15:29N 53°25' W 003°00'0 0.0
2014-Oct-23 14:29N 53°25' W 003°00'0 0.0
2014-Oct-23 13:29N 53°25' W 003°00'0 0.0
2014-Oct-23 12:29N 53°25' W 003°00'0 0.0
2014-Oct-23 11:29N 53°25' W 003°00'0 0.0
2014-Oct-23 10:23N 53°25' W 003°00'0 0.0
2014-Oct-23 09:23N 53°25' W 003°00'0 0.0
2014-Oct-23 08:23N 53°25' W 003°00'0 0.0
2014-Oct-23 07:29N 53°25' W 003°00'0 0.0
2014-Oct-23 06:17N 53°25' W 003°00'0 0.0
2014-Oct-23 05:23N 53°25' W 003°00'0 0.0
2014-Oct-23 04:29N 53°25' W 003°00'0 0.0
2014-Oct-23 03:29N 53°25' W 003°00'0 0.0
2014-Oct-23 02:29N 53°25' W 003°00'0 0.0
2014-Oct-23 01:23N 53°25' W 003°00'0 0.0
2014-Oct-23 00:23N 53°25' W 003°00'0 0.0
2014-Oct-22 23:29N 53°25' W 003°00'0 0.0
2014-Oct-22 22:29N 53°25' W 003°00'0 0.0
2014-Oct-22 21:29N 53°25' W 003°00'0 0.0
2014-Oct-22 20:23N 53°25' W 003°00'0 0.0
2014-Oct-22 19:29N 53°25' W 003°00'0 0.0
2014-Oct-22 18:29N 53°25' W 003°00'0 0.0
2014-Oct-22 17:29N 53°25' W 003°00'0 0.0
2014-Oct-22 16:23N 53°25' W 003°00'0 0.0
2014-Oct-22 15:29N 53°25' W 003°00'0 0.0
2014-Oct-22 14:29N 53°25' W 003°00'0 0.0
2014-Oct-22 13:28N 53°25' W 003°00'0 0.0
2014-Oct-22 12:28N 53°25' W 003°00'0 0.0
2014-Oct-22 11:28N 53°25' W 003°00'0 0.0
2014-Oct-22 10:28N 53°25' W 003°00'1 1.0
2014-Oct-22 09:30N 53°26' W 003°01'4 3.2
2014-Oct-22 08:18N 53°23' W 002°60'0 0.0
2014-Oct-22 07:24N 53°23' W 002°60'0 0.0
2014-Oct-22 06:30N 53°23' W 002°60'0 0.0
2014-Oct-22 05:05N 53°23' W 002°60'0 0.0
2014-Oct-22 04:29N 53°23' W 002°60'0 0.0
2014-Oct-22 03:23N 53°23' W 002°60'0 0.0
2014-Oct-22 02:29N 53°23' W 002°60'0 0.0
2014-Oct-22 01:11N 53°23' W 002°60'0 0.0
2014-Oct-22 00:17N 53°23' W 002°60'0 0.0
2014-Oct-21 23:29N 53°23' W 002°60'0 0.0
2014-Oct-21 22:23N 53°23' W 002°60'0 0.0
2014-Oct-21 21:29N 53°23' W 002°60'0 0.0
2014-Oct-21 18:33N 53°23' W 002°60'0 0.0
2014-Oct-21 17:27N 53°23' W 002°60'0 0.0
2014-Oct-21 15:21N 53°23' W 002°60'0 0.0
2014-Oct-21 14:33N 53°23' W 002°60'0 0.0
2014-Oct-21 12:15N 53°23' W 002°60'0 0.0
2014-Oct-21 11:21N 53°23' W 002°60'0 0.0
2014-Oct-21 10:33N 53°23' W 002°60'0 0.0
2014-Oct-21 09:15N 53°23' W 002°60'0 0.0
2014-Oct-21 08:33N 53°23' W 002°60'0 0.0
2014-Oct-21 07:15N 53°23' W 002°60'0 0.0
2014-Oct-21 05:33N 53°23' W 002°60'0 0.1
2014-Oct-21 04:13N 53°23' W 002°60'0 0.0
2014-Oct-21 03:31N 53°23' W 002°60'0 0.0
2014-Oct-21 02:31N 53°23' W 002°60'0 0.0
2014-Oct-21 01:31N 53°23' W 002°60'0 0.0
2014-Oct-21 00:25N 53°23' W 002°60'0 0.0
2014-Oct-20 23:31N 53°23' W 002°60'0 0.0
2014-Oct-20 22:13N 53°23' W 002°60'0 0.0
2014-Oct-20 21:19N 53°23' W 002°60'0 0.0
2014-Oct-20 20:07N 53°23' W 002°60'0 0.0
2014-Oct-20 19:18N 53°23' W 002°60'0 0.0
2014-Oct-20 17:30N 53°23' W 002°60'0 0.0
2014-Oct-20 16:18N 53°23' W 002°60'0 0.0
2014-Oct-20 15:30N 53°23' W 002°60'0 0.0
2014-Oct-20 14:24N 53°23' W 002°60'0 0.0
2014-Oct-20 13:24N 53°23' W 002°60'0 0.0
2014-Oct-20 12:30N 53°23' W 002°60'0 0.0
2014-Oct-20 11:18N 53°23' W 002°60'0 0.0
2014-Oct-20 10:18N 53°23' W 002°60'0 0.0
2014-Oct-20 09:30N 53°23' W 002°60'0 0.0
2014-Oct-20 08:30N 53°23' W 002°60'0 0.0
2014-Oct-20 03:12N 53°23' W 002°60'0 0.0
2014-Oct-20 02:24N 53°23' W 002°60'0 0.0
2014-Oct-19 21:24N 53°23' W 002°60'0 0.3
2014-Oct-19 20:33N 53°23' W 003°00'5 4.7
2014-Oct-19 19:33N 53°27' W 003°02'9 7.9
2014-Oct-19 18:28N 53°31' W 003°16'4 3.9
2014-Oct-19 17:33N 53°32' W 003°10'7 6.4
2014-Oct-19 16:28N 53°27' W 003°01'2 1.7
2014-Oct-19 15:28N 53°25' W 003°00'0 0.0
2014-Oct-19 14:28N 53°25' W 003°00'0 0.0
2014-Oct-19 13:28N 53°25' W 003°00'0 0.0
2014-Oct-19 12:28N 53°25' W 003°00'0 0.0
2014-Oct-19 11:28N 53°25' W 003°00'0 0.0
2014-Oct-19 10:28N 53°25' W 003°00'0 0.0
2014-Oct-19 09:28N 53°25' W 003°00'0 0.0
2014-Oct-19 08:28N 53°25' W 003°00'0 0.0
2014-Oct-19 07:28N 53°25' W 003°00'2 2.1
2014-Oct-19 06:29N 53°27' W 003°01'1 0.5
2014-Oct-19 05:30N 53°27' W 003°01'0 0.2
2014-Oct-19 04:30N 53°27' W 003°01'2 1.5
2014-Oct-19 03:26N 53°25' W 003°00'0 0.0
2014-Oct-19 02:32N 53°25' W 003°00'0 0.0
2014-Oct-19 01:32N 53°25' W 003°00'0 0.0
2014-Oct-19 00:32N 53°25' W 003°00'0 0.0
2014-Oct-18 23:32N 53°25' W 003°00'0 0.0
2014-Oct-18 22:20N 53°25' W 003°00'0 0.0
2014-Oct-18 21:32N 53°25' W 003°00'0 0.0
2014-Oct-18 20:32N 53°25' W 003°00'0 0.0
2014-Oct-18 19:32N 53°25' W 003°00'0 0.0
2014-Oct-18 18:32N 53°25' W 003°00'0 0.0
2014-Oct-18 17:32N 53°25' W 003°00'0 0.3
2014-Oct-18 16:33N 53°26' W 003°00'2 1.8
2014-Oct-18 15:33N 53°24' W 003°00'1 1.2
2014-Oct-18 14:31N 53°23' W 002°60'0 0.0
2014-Oct-18 13:31N 53°23' W 002°60'0 0.0
2014-Oct-18 12:31N 53°23' W 002°60'0 0.0
2014-Oct-18 11:31N 53°23' W 002°60'0 0.0
2014-Oct-18 10:31N 53°23' W 002°60'0 0.0
2014-Oct-18 09:31N 53°23' W 002°60'0 0.0
2014-Oct-18 08:31N 53°23' W 002°60'0 0.0
2014-Oct-18 07:31N 53°23' W 002°60'0 0.0
2014-Oct-18 06:25N 53°23' W 002°60'0 0.0
2014-Oct-18 05:31N 53°23' W 002°60'0 0.0
2014-Oct-18 04:18N 53°23' W 002°60'0 0.0
2014-Oct-18 03:24N 53°23' W 002°60'0 0.0
2014-Oct-18 02:30N 53°23' W 002°60'0 0.0
2014-Oct-18 01:24N 53°23' W 002°60'0 0.0
2014-Oct-18 00:30N 53°23' W 002°60'0 0.0
2014-Oct-17 23:30N 53°23' W 002°60'0 0.0
2014-Oct-17 22:18N 53°23' W 002°60'0 0.0
2014-Oct-17 21:18N 53°23' W 002°60'0 0.0
2014-Oct-17 19:24N 53°23' W 002°60'0 0.0
2014-Oct-17 18:18N 53°23' W 002°60'0 0.0
2014-Oct-17 17:30N 53°23' W 002°60'0 0.0
2014-Oct-17 16:30N 53°23' W 002°60'0 0.0
2014-Oct-17 15:30N 53°23' W 002°60'0 0.0
2014-Oct-17 14:30N 53°23' W 002°60'0 0.0
2014-Oct-17 07:12N 53°23' W 002°60'0 0.0
2014-Oct-17 06:30N 53°23' W 002°60'0 0.4
2014-Oct-17 05:32N 53°23' W 003°00'6 5.8
2014-Oct-17 04:33N 53°28' W 003°04'9 8.3
2014-Oct-17 03:27N 53°31' W 003°18'7 7.8
2014-Oct-17 02:33N 53°31' W 003°07'9 9.0
2014-Oct-17 01:31N 53°23' W 003°00'0 0.0
2014-Oct-17 00:31N 53°23' W 003°00'0 0.0
2014-Oct-16 23:31N 53°23' W 003°00'0 0.0
2014-Oct-16 22:31N 53°23' W 003°00'0 0.0
2014-Oct-16 21:31N 53°23' W 003°00'0 0.0
2014-Oct-16 20:31N 53°23' W 003°00'0 0.0
2014-Oct-16 19:31N 53°23' W 003°00'0 0.0
2014-Oct-16 18:19N 53°23' W 003°00'0 0.0
2014-Oct-16 17:31N 53°23' W 003°00'0 0.0
2014-Oct-16 16:31N 53°23' W 003°00'0 0.0
2014-Oct-16 14:32N 53°23' W 003°00'0 0.0
2014-Oct-16 13:32N 53°23' W 003°00'0 0.0
2014-Oct-16 12:32N 53°23' W 003°00'0 0.0
2014-Oct-16 11:32N 53°23' W 003°00'0 0.0
2014-Oct-16 10:26N 53°23' W 003°00'0 0.0
2014-Oct-16 09:32N 53°23' W 003°00'  

Dump ship's entire track history